Time;durP1;ratioP1;P1;durP2;ratioP2;P2;SDS_P1;SDS_P2;PMS_P1;PMS_P2;Temp;Humidity;BMP_temperature;BMP_pressure;BME280_temperature;BME280_humidity;BME280_pressure;Samples;Min_cycle;Max_cycle;Signal;HPM_P1;HPM_P2
2021/06/23 00:01:13;;;;;;;16.10;7.38;;;;;;;;;;5119313;27;20035;-79
2021/06/23 00:03:39;;;;;;;12.38;7.35;;;;;;;;;;5126975;27;20059;-81
2021/06/23 00:06:05;;;;;;;12.05;7.05;;;;;;;;;;5113603;27;20461;-79
2021/06/23 00:08:31;;;;;;;19.15;7.25;;;;;;;;;;5108332;27;20158;-80
2021/06/23 00:10:58;;;;;;;15.02;6.80;;;;;;;;;;5121210;27;20183;-80
2021/06/23 00:13:27;;;;;;;14.27;6.43;;;;;;;;;;5119089;27;20439;-80
2021/06/23 00:15:53;;;;;;;10.55;6.85;;;;;;;;;;5120427;27;20070;-80
2021/06/23 00:18:19;;;;;;;13.40;6.53;;;;;;;;;;5123300;27;20077;-80
2021/06/23 00:20:45;;;;;;;17.90;6.60;;;;;;;;;;5126757;27;20080;-80
2021/06/23 00:23:11;;;;;;;15.18;6.28;;;;;;;;;;5096050;28;20771;-80
2021/06/23 00:25:37;;;;;;;11.60;5.75;;;;;;;;;;5119034;27;20036;-80
2021/06/23 00:28:03;;;;;;;12.38;5.78;;;;;;;;;;5101428;27;20180;-80
2021/06/23 00:30:29;;;;;;;9.52;5.82;;;;;;;;;;5119700;27;20019;-79
2021/06/23 00:32:55;;;;;;;20.27;6.70;;;;;;;;;;5131444;27;20503;-81
2021/06/23 00:35:21;;;;;;;13.32;5.88;;;;;;;;;;5117476;27;20027;-81
2021/06/23 00:37:47;;;;;;;12.00;6.50;;;;;;;;;;5120753;27;20033;-80
2021/06/23 00:40:14;;;;;;;12.38;6.40;;;;;;;;;;5111587;27;20031;-80
2021/06/23 00:42:42;;;;;;;13.25;6.47;;;;;;;;;;5121674;27;20043;-81
2021/06/23 00:45:12;;;;;;;9.27;6.15;;;;;;;;;;5101097;27;20034;-80
2021/06/23 00:47:38;;;;;;;10.88;6.45;;;;;;;;;;5115226;27;20135;-79
2021/06/23 00:50:06;;;;;;;13.38;6.75;;;;;;;;;;5119388;27;20460;-80
2021/06/23 00:52:32;;;;;;;14.50;6.47;;;;;;;;;;5101235;27;20039;-80
2021/06/23 00:54:58;;;;;;;12.93;6.10;;;;;;;;;;5131426;27;20043;-80
2021/06/23 00:57:24;;;;;;;12.88;6.15;;;;;;;;;;5118084;27;20035;-79
2021/06/23 00:59:52;;;;;;;10.55;6.18;;;;;;;;;;5119818;27;20032;-81
2021/06/23 01:02:20;;;;;;;12.95;6.15;;;;;;;;;;5131195;27;20027;-80
2021/06/23 01:04:47;;;;;;;11.13;6.15;;;;;;;;;;5122914;27;20173;-78
2021/06/23 01:07:13;;;;;;;10.98;6.10;;;;;;;;;;5117118;27;20438;-79
2021/06/23 01:09:39;;;;;;;9.70;6.28;;;;;;;;;;5111924;27;20417;-79
2021/06/23 01:12:12;;;;;;;12.80;6.28;;;;;;;;;;5128512;27;20023;-79
2021/06/23 01:14:38;;;;;;;11.18;6.05;;;;;;;;;;5121764;27;20031;-80
2021/06/23 01:17:05;;;;;;;12.65;6.28;;;;;;;;;;5121013;27;20047;-80
2021/06/23 01:19:35;;;;;;;12.10;5.93;;;;;;;;;;5120000;27;20081;-79
2021/06/23 01:22:01;;;;;;;16.35;5.80;;;;;;;;;;5127697;27;20476;-80
2021/06/23 01:24:27;;;;;;;10.45;5.78;;;;;;;;;;5123083;27;20464;-80
2021/06/23 01:26:53;;;;;;;11.75;5.90;;;;;;;;;;5122748;27;20039;-79
2021/06/23 01:29:19;;;;;;;10.77;6.18;;;;;;;;;;5118955;27;20390;-80
2021/06/23 01:31:45;;;;;;;10.60;6.22;;;;;;;;;;5110266;28;20111;-80
2021/06/23 01:34:12;;;;;;;10.00;6.38;;;;;;;;;;5127425;27;20034;-80
2021/06/23 01:36:38;;;;;;;12.20;5.72;;;;;;;;;;5107211;28;20046;-80
2021/06/23 01:39:04;;;;;;;14.43;6.70;;;;;;;;;;5108113;27;20115;-80
2021/06/23 01:41:30;;;;;;;12.25;6.60;;;;;;;;;;5117496;27;20419;-79
2021/06/23 01:43:56;;;;;;;19.05;7.25;;;;;;;;;;5106943;27;20488;-80
2021/06/23 01:46:22;;;;;;;12.27;6.45;;;;;;;;;;5112767;27;20242;-80
2021/06/23 01:48:48;;;;;;;12.50;7.10;;;;;;;;;;5122351;27;20030;-79
2021/06/23 01:51:14;;;;;;;10.63;7.28;;;;;;;;;;5113764;27;20033;-79
2021/06/23 01:53:40;;;;;;;10.07;7.07;;;;;;;;;;5121099;27;20563;-80
2021/06/23 01:56:06;;;;;;;12.80;7.30;;;;;;;;;;5118529;27;20039;-79
2021/06/23 01:58:42;;;;;;;13.15;7.13;;;;;;;;;;5114941;27;20031;-79
2021/06/23 02:01:14;;;;;;;13.68;6.97;;;;;;;;;;5115105;27;20035;-77
2021/06/23 02:03:43;;;;;;;13.27;6.80;;;;;;;;;;5125384;27;20034;-80
2021/06/23 02:06:10;;;;;;;12.75;7.68;;;;;;;;;;5119200;27;20032;-80
2021/06/23 02:08:39;;;;;;;13.60;7.80;;;;;;;;;;5126435;27;20435;-80
2021/06/23 02:11:14;;;;;;;10.52;6.70;;;;;;;;;;5105261;27;20027;-79
2021/06/23 02:13:52;;;;;;;13.55;7.20;;;;;;;;;;5129094;27;20041;-80
2021/06/23 02:16:18;;;;;;;13.90;7.00;;;;;;;;;;5120793;27;20385;-79
2021/06/23 02:18:44;;;;;;;16.65;7.93;;;;;;;;;;5128475;27;20043;-78
2021/06/23 02:21:10;;;;;;;13.40;7.45;;;;;;;;;;5118421;27;20032;-78
2021/06/23 02:23:37;;;;;;;11.27;7.25;;;;;;;;;;5117542;28;20129;-80
2021/06/23 02:26:03;;;;;;;12.15;6.93;;;;;;;;;;5114747;28;20369;-80
2021/06/23 02:28:29;;;;;;;10.60;6.47;;;;;;;;;;5122419;28;20027;-80
2021/06/23 02:30:57;;;;;;;11.25;6.80;;;;;;;;;;5118333;28;20031;-80
2021/06/23 02:33:23;;;;;;;15.00;6.45;;;;;;;;;;5110392;28;20319;-80
2021/06/23 02:35:50;;;;;;;9.95;6.70;;;;;;;;;;5099040;28;20031;-80
2021/06/23 02:38:16;;;;;;;27.88;7.07;;;;;;;;;;5123364;28;20056;-79
2021/06/23 02:40:42;;;;;;;15.43;7.40;;;;;;;;;;5129351;28;20486;-79
2021/06/23 02:43:08;;;;;;;10.90;6.68;;;;;;;;;;5115247;28;20082;-79
2021/06/23 02:45:34;;;;;;;13.52;6.57;;;;;;;;;;5112616;28;20047;-80
2021/06/23 02:48:01;;;;;;;16.38;6.32;;;;;;;;;;5125369;28;20027;-79
2021/06/23 02:50:29;;;;;;;12.95;6.72;;;;;;;;;;5110413;28;20035;-78
2021/06/23 02:52:55;;;;;;;10.65;6.40;;;;;;;;;;5110782;28;20432;-79
2021/06/23 02:55:21;;;;;;;10.55;6.65;;;;;;;;;;5119178;28;20035;-79
2021/06/23 02:57:48;;;;;;;16.15;6.40;;;;;;;;;;5113711;28;20525;-79
2021/06/23 03:00:15;;;;;;;8.80;5.97;;;;;;;;;;5117674;28;20019;-79
2021/06/23 03:02:41;;;;;;;14.68;6.95;;;;;;;;;;5114695;28;20041;-80
2021/06/23 03:05:07;;;;;;;10.85;6.35;;;;;;;;;;5118235;28;20094;-80
2021/06/23 03:07:33;;;;;;;16.52;6.90;;;;;;;;;;5116146;28;20031;-79
2021/06/23 03:10:04;;;;;;;9.65;5.82;;;;;;;;;;5118067;28;20031;-79
2021/06/23 03:12:30;;;;;;;11.38;6.35;;;;;;;;;;5113028;28;20032;-79
2021/06/23 03:14:57;;;;;;;14.35;6.65;;;;;;;;;;5128424;28;20022;-78
2021/06/23 03:17:23;;;;;;;9.95;5.05;;;;;;;;;;5125677;28;20031;-80
2021/06/23 03:19:49;;;;;;;13.10;5.38;;;;;;;;;;5100534;28;20027;-79
2021/06/23 03:22:14;;;;;;;14.00;5.35;;;;;;;;;;5111454;28;20047;-79
2021/06/23 03:24:40;;;;;;;13.30;5.70;;;;;;;;;;5124099;28;20041;-80
2021/06/23 03:27:07;;;;;;;10.30;5.20;;;;;;;;;;5110047;28;20031;-79
2021/06/23 03:29:34;;;;;;;14.55;5.90;;;;;;;;;;5129762;27;20054;-80
2021/06/23 03:32:01;;;;;;;12.05;5.10;;;;;;;;;;5115533;27;20023;-80
2021/06/23 03:34:27;;;;;;;11.27;5.75;;;;;;;;;;5103030;27;20034;-80
2021/06/23 03:36:54;;;;;;;13.05;5.88;;;;;;;;;;5112432;27;20044;-79
2021/06/23 03:39:20;;;;;;;9.30;4.35;;;;;;;;;;5114160;27;20035;-78
2021/06/23 03:41:46;;;;;;;13.70;5.75;;;;;;;;;;5119795;27;20034;-79
2021/06/23 03:44:12;;;;;;;12.02;5.70;;;;;;;;;;5112930;27;20047;-79
2021/06/23 03:46:38;;;;;;;12.25;6.72;;;;;;;;;;5116455;27;20053;-79
2021/06/23 03:49:04;;;;;;;14.43;6.32;;;;;;;;;;5117122;27;20106;-80
2021/06/23 03:51:30;;;;;;;8.70;5.53;;;;;;;;;;5116008;27;20065;-78
2021/06/23 03:53:56;;;;;;;16.05;6.32;;;;;;;;;;5126949;27;20065;-79
2021/06/23 03:56:22;;;;;;;9.23;6.38;;;;;;;;;;5115358;27;20085;-79
2021/06/23 03:58:48;;;;;;;12.57;5.80;;;;;;;;;;5112169;28;20095;-79
2021/06/23 04:01:14;;;;;;;15.00;6.25;;;;;;;;;;5120900;27;20142;-79
2021/06/23 04:03:40;;;;;;;14.23;5.75;;;;;;;;;;5128665;27;20023;-80
2021/06/23 04:06:06;;;;;;;11.43;6.10;;;;;;;;;;5122128;27;20066;-79
2021/06/23 04:08:32;;;;;;;11.25;5.53;;;;;;;;;;5112085;27;20028;-79
2021/06/23 04:10:58;;;;;;;9.60;5.45;;;;;;;;;;5127291;27;20031;-79
2021/06/23 04:13:24;;;;;;;15.50;6.22;;;;;;;;;;5114356;27;20012;-79
2021/06/23 04:15:50;;;;;;;15.02;6.25;;;;;;;;;;5121059;27;20126;-80
2021/06/23 04:18:16;;;;;;;9.50;5.47;;;;;;;;;;5131813;27;20039;-80
2021/06/23 04:20:42;;;;;;;13.70;6.45;;;;;;;;;;5122182;27;20489;-80
2021/06/23 04:23:08;;;;;;;10.75;6.10;;;;;;;;;;5112711;27;20028;-80
2021/06/23 04:25:34;;;;;;;7.95;5.78;;;;;;;;;;5128459;27;20043;-80
2021/06/23 04:28:00;;;;;;;11.15;6.90;;;;;;;;;;5116710;27;20534;-81
2021/06/23 04:30:26;;;;;;;14.63;6.13;;;;;;;;;;5128233;27;20540;-77
2021/06/23 04:32:52;;;;;;;12.60;6.95;;;;;;;;;;5124064;27;20042;-78
2021/06/23 04:35:18;;;;;;;13.00;6.72;;;;;;;;;;5120974;27;20019;-79
2021/06/23 04:37:44;;;;;;;13.60;6.85;;;;;;;;;;5118380;27;20122;-79
2021/06/23 04:40:12;;;;;;;13.68;7.00;;;;;;;;;;5115037;27;20118;-79
2021/06/23 04:42:38;;;;;;;;;;;;;;;;;;5119782;27;20042;-78
2021/06/23 04:45:05;;;;;;;14.48;7.43;;;;;;;;;;5128125;27;19908;-80
2021/06/23 04:47:31;;;;;;;18.80;7.30;;;;;;;;;;5112321;27;20142;-78
2021/06/23 04:49:57;;;;;;;14.43;7.13;;;;;;;;;;5111194;27;20028;-78
2021/06/23 04:52:23;;;;;;;13.55;7.63;;;;;;;;;;5118639;27;20043;-80
2021/06/23 04:54:50;;;;;;;17.83;7.25;;;;;;;;;;5129972;27;20548;-78
2021/06/23 04:57:16;;;;;;;10.30;6.43;;;;;;;;;;5120675;27;20047;-78
2021/06/23 04:59:42;;;;;;;12.88;7.18;;;;;;;;;;5119705;27;20016;-78
2021/06/23 05:02:08;;;;;;;15.88;6.93;;;;;;;;;;5116598;27;20042;-78
2021/06/23 05:04:35;;;;;;;13.75;7.20;;;;;;;;;;5125611;27;20050;-78
2021/06/23 05:07:03;;;;;;;11.40;7.13;;;;;;;;;;5118778;27;20068;-77
2021/06/23 05:09:30;;;;;;;13.90;6.63;;;;;;;;;;5115928;27;20027;-77
2021/06/23 05:11:56;;;;;;;15.70;7.17;;;;;;;;;;5115221;27;20031;-78
2021/06/23 05:14:21;;;;;;;13.05;7.38;;;;;;;;;;5123791;27;20031;-77
2021/06/23 05:16:50;;;;;;;16.83;6.97;;;;;;;;;;5118601;27;20024;-77
2021/06/23 05:19:16;;;;;;;11.68;6.97;;;;;;;;;;5122719;27;20040;-78
2021/06/23 05:21:42;;;;;;;11.73;6.15;;;;;;;;;;5125643;27;20505;-77
2021/06/23 05:24:08;;;;;;;12.05;5.68;;;;;;;;;;5119409;27;20023;-77
2021/06/23 05:26:34;;;;;;;11.82;6.22;;;;;;;;;;5123604;27;20047;-77
2021/06/23 05:29:00;;;;;;;9.57;5.78;;;;;;;;;;5116132;27;20035;-78
2021/06/23 05:31:26;;;;;;;9.38;5.60;;;;;;;;;;5096796;27;20031;-77
2021/06/23 05:33:52;;;;;;;9.30;5.90;;;;;;;;;;5115780;27;20577;-78
2021/06/23 05:36:19;;;;;;;16.83;7.20;;;;;;;;;;5111471;28;20036;-80
2021/06/23 05:38:45;;;;;;;22.70;7.15;;;;;;;;;;5092924;28;20032;-80
2021/06/23 05:41:11;;;;;;;16.27;6.88;;;;;;;;;;5118765;27;20047;-78
2021/06/23 05:43:37;;;;;;;10.10;5.35;;;;;;;;;;5118814;27;20342;-80
2021/06/23 05:46:03;;;;;;;13.20;5.43;;;;;;;;;;5104792;28;20031;-80
2021/06/23 05:48:29;;;;;;;12.20;5.38;;;;;;;;;;5111578;27;20065;-80
2021/06/23 05:50:55;;;;;;;11.25;6.13;;;;;;;;;;5095896;28;20577;-78
2021/06/23 05:53:21;;;;;;;14.77;6.13;;;;;;;;;;5113863;27;20087;-79
2021/06/23 05:55:47;;;;;;;14.88;6.82;;;;;;;;;;5116201;27;20035;-79
2021/06/23 05:58:13;;;;;;;11.80;5.85;;;;;;;;;;5118966;27;20390;-79
2021/06/23 06:00:39;;;;;;;8.48;5.13;;;;;;;;;;5113762;27;20031;-79
2021/06/23 06:03:05;;;;;;;14.85;5.68;;;;;;;;;;5124257;27;20110;-81
2021/06/23 06:05:31;;;;;;;15.95;5.63;;;;;;;;;;5097393;28;20130;-78
2021/06/23 06:07:57;;;;;;;11.05;5.43;;;;;;;;;;5128465;27;20058;-77
2021/06/23 06:10:24;;;;;;;10.13;5.07;;;;;;;;;;5127962;27;20019;-77
2021/06/23 06:12:50;;;;;;;10.68;5.10;;;;;;;;;;5091251;28;20088;-78
2021/06/23 06:15:16;;;;;;;17.75;4.85;;;;;;;;;;5111215;28;20020;-78
2021/06/23 06:17:42;;;;;;;13.90;5.70;;;;;;;;;;5112708;27;20070;-79
2021/06/23 06:20:08;;;;;;;13.65;5.25;;;;;;;;;;5109228;27;20019;-80
2021/06/23 06:22:34;;;;;;;15.47;5.60;;;;;;;;;;5120651;27;20047;-79
2021/06/23 06:25:00;;;;;;;16.13;5.55;;;;;;;;;;5125321;27;20403;-80
2021/06/23 06:27:26;;;;;;;12.93;5.50;;;;;;;;;;5126860;28;20030;-77
2021/06/23 06:29:53;;;;;;;12.73;5.30;;;;;;;;;;5119098;28;20118;-79
2021/06/23 06:32:19;;;;;;;20.48;5.85;;;;;;;;;;5109544;28;20157;-79
2021/06/23 06:34:45;;;;;;;15.38;5.35;;;;;;;;;;5110483;28;20032;-79
2021/06/23 06:37:11;;;;;;;12.48;4.97;;;;;;;;;;5122281;28;20874;-78
2021/06/23 06:39:38;;;;;;;13.15;5.70;;;;;;;;;;5123924;28;20164;-78
2021/06/23 06:42:04;;;;;;;16.30;5.37;;;;;;;;;;5105181;28;20060;-79
2021/06/23 06:44:31;;;;;;;13.82;4.70;;;;;;;;;;5113211;28;20422;-78
2021/06/23 06:46:58;;;;;;;8.35;4.82;;;;;;;;;;5117456;28;20031;-79
2021/06/23 06:49:28;;;;;;;12.38;5.13;;;;;;;;;;5129514;28;20023;-77
2021/06/23 06:51:57;;;;;;;12.23;4.95;;;;;;;;;;5123265;28;20027;-78
2021/06/23 06:54:24;;;;;;;11.18;4.28;;;;;;;;;;5084154;28;20051;-79
2021/06/23 06:56:50;;;;;;;12.07;4.77;;;;;;;;;;5089556;28;20036;-79
2021/06/23 06:59:18;;;;;;;18.42;4.63;;;;;;;;;;5089102;28;20099;-78
2021/06/23 07:01:44;;;;;;;7.75;4.07;;;;;;;;;;5086997;28;20447;-79
2021/06/23 07:04:10;;;;;;;18.83;4.70;;;;;;;;;;5091831;28;20036;-80
2021/06/23 07:06:36;;;;;;;12.85;4.72;;;;;;;;;;5093577;28;20035;-78
2021/06/23 07:09:02;;;;;;;11.93;4.25;;;;;;;;;;5092174;28;20024;-78
2021/06/23 07:11:28;;;;;;;9.50;4.15;;;;;;;;;;5092169;28;20622;-78
2021/06/23 07:13:54;;;;;;;7.88;4.60;;;;;;;;;;5092126;28;20036;-79
2021/06/23 07:16:21;;;;;;;6.65;3.88;;;;;;;;;;5093689;28;20609;-79
2021/06/23 07:18:48;;;;;;;15.53;4.77;;;;;;;;;;5093097;28;20389;-77
2021/06/23 07:21:18;;;;;;;6.75;3.75;;;;;;;;;;5106731;28;20649;-78
2021/06/23 07:23:44;;;;;;;9.05;4.00;;;;;;;;;;5092965;28;20115;-78
2021/06/23 07:26:10;;;;;;;13.40;4.22;;;;;;;;;;5092650;28;20024;-79
2021/06/23 07:28:55;;;;;;;8.85;4.00;;;;;;;;;;5093262;28;20035;-79
2021/06/23 07:36:45;;;;;;;8.75;4.07;;;;;;;;;;5091928;27;20036;-79
2021/06/23 07:39:12;;;;;;;13.68;4.57;;;;;;;;;;5090551;28;20055;-79
2021/06/23 07:41:39;;;;;;;7.22;3.65;;;;;;;;;;5091124;28;20034;-79
2021/06/23 07:44:05;;;;;;;11.88;4.20;;;;;;;;;;5107813;28;20028;-78
2021/06/23 07:46:35;;;;;;;11.60;4.05;;;;;;;;;;5090673;28;20105;-77
2021/06/23 07:49:01;;;;;;;7.78;4.18;;;;;;;;;;5092874;28;20101;-78
2021/06/23 07:51:36;;;;;;;11.13;4.40;;;;;;;;;;5107369;28;20027;-78
2021/06/23 08:10:30;;;;;;;9.27;4.22;;;;;;;;;;5056607;28;20531;-77
2021/06/23 08:12:58;;;;;;;13.93;5.20;;;;;;;;;;5111703;27;20063;-77
2021/06/23 08:15:29;;;;;;;14.70;5.00;;;;;;;;;;5124450;27;20015;-79
2021/06/23 08:17:55;;;;;;;7.28;4.18;;;;;;;;;;5116227;27;20086;-78
2021/06/23 08:20:21;;;;;;;8.00;4.50;;;;;;;;;;5112293;27;20077;-77
2021/06/23 08:22:48;;;;;;;11.77;4.57;;;;;;;;;;5112356;27;20442;-77
2021/06/23 08:25:14;;;;;;;8.88;4.40;;;;;;;;;;5119562;27;20103;-77
2021/06/23 08:27:40;;;;;;;10.02;5.13;;;;;;;;;;5117938;27;20039;-78
2021/06/23 08:30:07;;;;;;;11.23;4.90;;;;;;;;;;5123252;27;20075;-78
2021/06/23 08:32:33;;;;;;;11.95;5.18;;;;;;;;;;5103113;28;20042;-78
2021/06/23 08:34:59;;;;;;;12.13;5.43;;;;;;;;;;5111594;28;20031;-79
2021/06/23 08:37:25;;;;;;;12.65;5.05;;;;;;;;;;5115035;27;20047;-78
2021/06/23 08:39:51;;;;;;;9.27;4.68;;;;;;;;;;5132377;27;20035;-78
2021/06/23 08:42:20;;;;;;;13.15;4.85;;;;;;;;;;5125324;27;20029;-79
2021/06/23 08:44:46;;;;;;;12.73;4.70;;;;;;;;;;5126648;27;20473;-78
2021/06/23 08:47:13;;;;;;;14.60;5.20;;;;;;;;;;5120876;27;20522;-78
2021/06/23 08:49:39;;;;;;;17.30;5.60;;;;;;;;;;5120394;27;20040;-79
2021/06/23 08:52:05;;;;;;;13.60;5.80;;;;;;;;;;5119261;27;20503;-77
2021/06/23 08:54:31;;;;;;;14.63;4.70;;;;;;;;;;5111890;28;20042;-79
2021/06/23 08:56:57;;;;;;;12.52;5.45;;;;;;;;;;5111387;27;20035;-78
2021/06/23 08:59:23;;;;;;;15.07;5.22;;;;;;;;;;5121804;27;20118;-78
2021/06/23 09:01:49;;;;;;;12.60;5.55;;;;;;;;;;5130840;27;20031;-79
2021/06/23 09:04:17;;;;;;;17.57;5.30;;;;;;;;;;5131724;27;20034;-78
2021/06/23 09:06:47;;;;;;;11.73;4.93;;;;;;;;;;5118809;27;20024;-77
2021/06/23 09:09:21;;;;;;;15.45;4.75;;;;;;;;;;5092620;28;20497;-78
2021/06/23 09:11:48;;;;;;;10.95;4.60;;;;;;;;;;5114272;27;20027;-77
2021/06/23 09:14:16;;;;;;;11.32;4.65;;;;;;;;;;5119423;27;20499;-78
2021/06/23 09:17:05;;;;;;;12.02;5.00;;;;;;;;;;5105074;27;20043;-76
2021/06/23 09:19:32;;;;;;;13.00;4.90;;;;;;;;;;5112100;27;20043;-77
2021/06/23 09:21:58;;;;;;;13.57;5.10;;;;;;;;;;5111209;28;20349;-79
2021/06/23 09:24:37;;;;;;;15.18;5.25;;;;;;;;;;5112065;27;20322;-79
2021/06/23 09:27:22;;;;;;;20.15;5.32;;;;;;;;;;5129877;27;20034;-79
2021/06/23 09:29:52;;;;;;;11.32;5.47;;;;;;;;;;5126181;27;20126;-79
2021/06/23 09:32:21;;;;;;;17.13;5.28;;;;;;;;;;5119619;27;20028;-78
2021/06/23 09:34:49;;;;;;;10.25;5.50;;;;;;;;;;5111471;28;20023;-78
2021/06/23 09:37:27;;;;;;;11.93;4.88;;;;;;;;;;5112457;27;20118;-80
2021/06/23 09:40:12;;;;;;;13.80;5.53;;;;;;;;;;5106446;28;20028;-79
2021/06/23 09:42:39;;;;;;;17.65;7.38;;;;;;;;;;5118759;27;20374;-79
2021/06/23 09:45:09;;;;;;;14.52;4.65;;;;;;;;;;5111288;28;20024;-79
2021/06/23 09:47:36;;;;;;;10.93;5.05;;;;;;;;;;5119082;27;20028;-80
2021/06/23 09:50:03;;;;;;;15.35;5.85;;;;;;;;;;5110195;28;20602;-80
2021/06/23 09:52:30;;;;;;;12.70;4.95;;;;;;;;;;5110703;27;20032;-79
2021/06/23 09:54:58;;;;;;;13.10;6.07;;;;;;;;;;5131200;27;20031;-79
2021/06/23 09:57:25;;;;;;;13.98;4.95;;;;;;;;;;5122808;27;20122;-80
2021/06/23 09:59:54;;;;;;;15.00;5.60;;;;;;;;;;5121317;27;20046;-80
2021/06/23 10:02:26;;;;;;;12.82;5.50;;;;;;;;;;5121758;27;20481;-79
2021/06/23 10:04:53;;;;;;;11.95;5.18;;;;;;;;;;5110531;28;20027;-80
2021/06/23 10:07:38;;;;;;;11.25;5.15;;;;;;;;;;5117539;27;20466;-78
2021/06/23 10:10:05;;;;;;;9.18;4.82;;;;;;;;;;5110019;28;20039;-79
2021/06/23 10:12:31;;;;;;;13.55;5.40;;;;;;;;;;5109716;28;20401;-78
2021/06/23 10:14:58;;;;;;;12.70;5.57;;;;;;;;;;5122015;27;20523;-80
2021/06/23 10:17:24;;;;;;;15.10;5.38;;;;;;;;;;5122036;27;20028;-79
2021/06/23 10:19:50;;;;;;;16.80;6.00;;;;;;;;;;5110446;28;20435;-80
2021/06/23 10:22:17;;;;;;;14.85;6.05;;;;;;;;;;5116843;27;20054;-79
2021/06/23 10:24:44;;;;;;;16.83;5.75;;;;;;;;;;5110636;27;20097;-79
2021/06/23 10:27:11;;;;;;;18.45;6.28;;;;;;;;;;5111772;28;20023;-79
2021/06/23 10:29:39;;;;;;;16.63;6.50;;;;;;;;;;5110359;28;20027;-80
2021/06/23 10:32:06;;;;;;;13.27;6.35;;;;;;;;;;5109124;28;20024;-80
2021/06/23 10:34:32;;;;;;;14.05;5.78;;;;;;;;;;5110271;28;20020;-78
2021/06/23 10:36:59;;;;;;;17.90;5.75;;;;;;;;;;5111851;28;20043;-80
2021/06/23 10:39:28;;;;;;;20.35;6.30;;;;;;;;;;5114185;27;20016;-80
2021/06/23 10:41:58;;;;;;;13.52;5.45;;;;;;;;;;5129624;27;20060;-80
2021/06/23 10:44:24;;;;;;;13.13;5.10;;;;;;;;;;5114242;27;20028;-80
2021/06/23 10:46:52;;;;;;;10.20;4.87;;;;;;;;;;5116005;27;20020;-80
2021/06/23 10:49:38;;;;;;;14.57;5.28;;;;;;;;;;5129077;27;20030;-81
2021/06/23 10:52:22;;;;;;;11.65;5.13;;;;;;;;;;5113274;28;20500;-79
2021/06/23 10:54:55;;;;;;;14.73;5.90;;;;;;;;;;5122576;27;20126;-80
2021/06/23 10:57:26;;;;;;;15.15;4.88;;;;;;;;;;5128385;27;20042;-80
2021/06/23 10:59:53;;;;;;;12.40;5.38;;;;;;;;;;5125856;27;20027;-80
2021/06/23 11:02:27;;;;;;;15.07;5.80;;;;;;;;;;5120616;27;20497;-79
2021/06/23 11:05:02;;;;;;;15.68;5.63;;;;;;;;;;5122440;27;20046;-79
2021/06/23 11:07:40;;;;;;;12.57;5.53;;;;;;;;;;5120683;27;20020;-77
2021/06/23 11:10:15;;;;;;;11.93;5.40;;;;;;;;;;5133569;27;20118;-79
2021/06/23 11:12:44;;;;;;;13.80;5.20;;;;;;;;;;5124985;27;20076;-79
2021/06/23 11:15:34;;;;;;;16.05;5.07;;;;;;;;;;5129978;27;20047;-80
2021/06/23 11:18:20;;;;;;;13.60;5.20;;;;;;;;;;5104145;27;20119;-78
2021/06/23 11:20:46;;;;;;;17.17;5.82;;;;;;;;;;5113629;28;20024;-79
2021/06/23 11:23:30;;;;;;;9.25;5.65;;;;;;;;;;5124230;27;20023;-78
2021/06/23 11:25:56;;;;;;;21.15;6.03;;;;;;;;;;5131820;27;20036;-78
2021/06/23 11:28:26;;;;;;;14.40;6.07;;;;;;;;;;5133163;27;20026;-78
2021/06/23 11:30:52;;;;;;;17.10;6.18;;;;;;;;;;5116810;27;20273;-77
2021/06/23 11:33:27;;;;;;;15.83;5.53;;;;;;;;;;5112891;28;20027;-79
2021/06/23 11:35:57;;;;;;;12.32;4.90;;;;;;;;;;5112415;27;20071;-78
2021/06/23 11:38:23;;;;;;;11.48;5.53;;;;;;;;;;5132834;27;20114;-78
2021/06/23 11:40:50;;;;;;;14.73;5.15;;;;;;;;;;5133776;27;20023;-78
2021/06/23 11:43:16;;;;;;;17.92;6.00;;;;;;;;;;5115493;27;20035;-79
2021/06/23 11:45:42;;;;;;;16.75;5.80;;;;;;;;;;5132151;27;20354;-79
2021/06/23 11:48:08;;;;;;;16.50;6.32;;;;;;;;;;5125286;27;20055;-79
2021/06/23 11:50:35;;;;;;;15.77;6.13;;;;;;;;;;5128403;27;20068;-79
2021/06/23 11:53:06;;;;;;;15.07;6.28;;;;;;;;;;5128396;27;20393;-79
2021/06/23 11:55:32;;;;;;;12.05;5.80;;;;;;;;;;5133211;27;20027;-78
2021/06/23 11:58:00;;;;;;;14.27;5.70;;;;;;;;;;5123995;27;20055;-80
2021/06/23 12:00:27;;;;;;;13.95;6.10;;;;;;;;;;5108144;27;20079;-79
2021/06/23 12:02:53;;;;;;;20.20;5.93;;;;;;;;;;5117399;27;20040;-78
2021/06/23 12:05:20;;;;;;;12.23;5.97;;;;;;;;;;5121459;27;20019;-79
2021/06/23 12:07:46;;;;;;;12.98;5.10;;;;;;;;;;5112223;27;20040;-79
2021/06/23 12:10:12;;;;;;;18.30;6.03;;;;;;;;;;5094447;28;20038;-78
2021/06/23 12:12:39;;;;;;;12.52;5.10;;;;;;;;;;5107915;27;20035;-79
2021/06/23 12:15:07;;;;;;;13.63;5.30;;;;;;;;;;5124340;27;20421;-80
2021/06/23 12:17:33;;;;;;;14.50;5.80;;;;;;;;;;5120983;27;20066;-79
2021/06/23 12:20:01;;;;;;;17.27;5.63;;;;;;;;;;5120000;27;20026;-80
2021/06/23 12:22:27;;;;;;;15.70;5.88;;;;;;;;;;5120521;27;20070;-80
2021/06/23 12:24:54;;;;;;;18.42;5.60;;;;;;;;;;5116683;27;20055;-79
2021/06/23 12:27:20;;;;;;;16.80;5.40;;;;;;;;;;5123472;27;20118;-80
2021/06/23 12:29:46;;;;;;;13.82;5.32;;;;;;;;;;5111811;27;20062;-80
2021/06/23 12:32:12;;;;;;;14.05;5.50;;;;;;;;;;5111911;28;20361;-79
2021/06/23 12:34:38;;;;;;;15.93;5.43;;;;;;;;;;5112612;27;20035;-79
2021/06/23 12:37:04;;;;;;;13.82;4.82;;;;;;;;;;5106669;27;20080;-80
2021/06/23 12:39:31;;;;;;;13.88;5.63;;;;;;;;;;5115293;27;20370;-81
2021/06/23 12:41:56;;;;;;;;;;;;;;;;;;5108070;27;20031;-80
2021/06/23 12:44:22;;;;;;;15.60;4.57;;;;;;;;;;5118731;27;19953;-80
2021/06/23 12:46:48;;;;;;;12.70;4.30;;;;;;;;;;5114050;27;20577;-80
2021/06/23 12:49:14;;;;;;;8.85;3.78;;;;;;;;;;5114869;27;20067;-79
2021/06/23 12:51:40;;;;;;;8.13;3.65;;;;;;;;;;5116335;27;20114;-80
2021/06/23 12:54:06;;;;;;;13.20;4.03;;;;;;;;;;5112131;27;20043;-81
2021/06/23 12:56:32;;;;;;;9.32;3.80;;;;;;;;;;5126006;27;20046;-79
2021/06/23 12:58:58;;;;;;;;;;;;;;;;;;5122305;27;20402;-80
2021/06/23 13:01:24;;;;;;;8.77;4.00;;;;;;;;;;5108951;27;19951;-80
2021/06/23 13:03:50;;;;;;;;;;;;;;;;;;5108010;27;20033;-80
2021/06/23 13:06:16;;;;;;;9.27;4.03;;;;;;;;;;5113374;27;19908;-80
2021/06/23 13:08:42;;;;;;;;;;;;;;;;;;5117890;27;20043;-78
2021/06/23 13:11:08;;;;;;;14.50;4.25;;;;;;;;;;5115771;27;19936;-81
2021/06/23 13:13:34;;;;;;;14.68;4.15;;;;;;;;;;5110288;27;20039;-79
2021/06/23 13:16:02;;;;;;;10.63;4.60;;;;;;;;;;5109899;27;20511;-79
2021/06/23 13:18:28;;;;;;;8.05;4.57;;;;;;;;;;5119311;27;20054;-79
2021/06/23 13:20:54;;;;;;;8.38;4.40;;;;;;;;;;5108076;27;20047;-80
2021/06/23 13:23:20;;;;;;;14.20;5.22;;;;;;;;;;5119545;27;20496;-79
2021/06/23 13:25:47;;;;;;;10.07;4.00;;;;;;;;;;5118570;27;20475;-79
2021/06/23 13:28:13;;;;;;;8.85;4.05;;;;;;;;;;5126912;27;20594;-79
2021/06/23 13:30:39;;;;;;;11.25;4.10;;;;;;;;;;5121987;27;20045;-80
2021/06/23 13:33:06;;;;;;;11.07;4.40;;;;;;;;;;5122338;27;20027;-80
2021/06/23 13:35:32;;;;;;;12.60;4.47;;;;;;;;;;5128005;27;20019;-80
2021/06/23 13:37:58;;;;;;;8.30;4.57;;;;;;;;;;5115305;27;20138;-80
2021/06/23 13:40:24;;;;;;;12.63;4.53;;;;;;;;;;5118313;27;20074;-81
2021/06/23 13:42:51;;;;;;;10.27;4.65;;;;;;;;;;5119768;27;20030;-81
2021/06/23 13:45:17;;;;;;;12.57;4.72;;;;;;;;;;5125284;27;20545;-80
2021/06/23 13:47:44;;;;;;;18.75;5.35;;;;;;;;;;5113345;27;20031;-80
2021/06/23 13:50:13;;;;;;;12.80;4.68;;;;;;;;;;5110884;28;20042;-80
2021/06/23 13:52:41;;;;;;;14.00;4.70;;;;;;;;;;5117311;27;20051;-80
2021/06/23 13:55:07;;;;;;;15.93;5.07;;;;;;;;;;5129911;27;20110;-79
2021/06/23 13:57:34;;;;;;;10.63;4.80;;;;;;;;;;5130973;27;20046;-80
2021/06/23 14:00:02;;;;;;;16.23;5.47;;;;;;;;;;5113448;27;20035;-80
2021/06/23 14:02:28;;;;;;;12.18;4.70;;;;;;;;;;5121133;27;20068;-80
2021/06/23 14:04:54;;;;;;;13.90;5.07;;;;;;;;;;5122169;27;20032;-79
2021/06/23 14:07:20;;;;;;;13.93;5.07;;;;;;;;;;5094573;27;20035;-79
2021/06/23 14:09:47;;;;;;;11.73;4.73;;;;;;;;;;5130550;27;20019;-80
2021/06/23 14:12:13;;;;;;;16.88;5.32;;;;;;;;;;5120537;27;20043;-80
2021/06/23 14:14:39;;;;;;;12.57;5.23;;;;;;;;;;5129333;27;20022;-80
2021/06/23 14:17:05;;;;;;;15.40;4.73;;;;;;;;;;5113267;27;20031;-79
2021/06/23 14:19:31;;;;;;;13.13;5.17;;;;;;;;;;5104562;28;20063;-80
2021/06/23 14:21:57;;;;;;;13.90;4.73;;;;;;;;;;5092299;28;20443;-79
2021/06/23 14:24:23;;;;;;;16.17;4.97;;;;;;;;;;5109070;27;20024;-80
2021/06/23 14:26:50;;;;;;;13.18;5.50;;;;;;;;;;5109049;28;20024;-80
2021/06/23 14:29:16;;;;;;;12.77;4.97;;;;;;;;;;5119286;28;20028;-79
2021/06/23 14:31:43;;;;;;;15.95;5.15;;;;;;;;;;5110416;28;20042;-79
2021/06/23 14:34:09;;;;;;;19.63;5.40;;;;;;;;;;5107547;28;20320;-80
2021/06/23 14:36:35;;;;;;;11.93;4.87;;;;;;;;;;5105932;28;20039;-78
2021/06/23 14:39:01;;;;;;;12.37;5.00;;;;;;;;;;5111545;28;20019;-80
2021/06/23 14:41:27;;;;;;;11.77;4.35;;;;;;;;;;5108064;28;20019;-81
2021/06/23 14:43:54;;;;;;;16.83;4.70;;;;;;;;;;5113428;28;20048;-80
2021/06/23 14:46:20;;;;;;;7.83;4.37;;;;;;;;;;5112278;28;20042;-81
2021/06/23 14:48:46;;;;;;;13.32;5.43;;;;;;;;;;5088839;28;20024;-81
2021/06/23 14:51:12;;;;;;;19.25;5.63;;;;;;;;;;5125727;28;20023;-80
2021/06/23 14:53:38;;;;;;;17.55;5.10;;;;;;;;;;5125802;28;20064;-79
2021/06/23 14:56:04;;;;;;;14.95;4.85;;;;;;;;;;5118822;28;20042;-80